createdAt,value
2023-01-10T00:00:33.157Z,9.24
2023-01-10T00:03:25.357Z,9.09
2023-01-10T00:06:15.451Z,8.99
2023-01-10T00:08:58.420Z,8.98
2023-01-10T00:12:05.514Z,9.11
2023-01-10T00:14:47.660Z,9.00
2023-01-10T00:17:36.383Z,9.24
2023-01-10T00:20:19.683Z,9.19
2023-01-10T00:23:08.430Z,9.13
2023-01-10T00:25:50.741Z,9.03
2023-01-10T00:28:42.702Z,8.97
2023-01-10T00:31:25.791Z,9.04
2023-01-10T00:34:15.492Z,9.01
2023-01-10T00:37:04.330Z,9.05
2023-01-10T00:39:53.342Z,9.12
2023-01-10T00:42:54.041Z,9.09
2023-01-10T00:45:43.337Z,8.98
2023-01-10T00:48:25.766Z,8.97
2023-01-10T00:51:14.403Z,9.16
2023-01-10T00:54:02.804Z,9.20
2023-01-10T00:56:44.381Z,9.05
2023-01-10T00:59:33.395Z,9.12
2023-01-10T01:02:22.467Z,9.01
2023-01-10T01:05:20.339Z,8.96
2023-01-10T01:08:02.599Z,9.01
2023-01-10T01:10:51.478Z,9.26
2023-01-10T01:13:33.630Z,9.03
2023-01-10T01:16:23.449Z,9.15
2023-01-10T01:19:05.633Z,9.04
2023-01-10T01:21:54.325Z,8.90
2023-01-10T01:24:36.757Z,8.84
2023-01-10T01:27:25.404Z,9.01
2023-01-10T01:30:15.717Z,8.92
2023-01-10T01:32:57.683Z,8.96
2023-01-10T01:35:49.430Z,8.89
2023-01-10T01:38:31.694Z,8.82
2023-01-10T01:41:39.331Z,9.17
2023-01-10T01:44:26.727Z,9.00
2023-01-10T01:47:22.483Z,9.05
2023-01-10T01:50:04.679Z,8.97
2023-01-10T01:52:55.368Z,9.07
2023-01-10T01:55:41.654Z,9.01
2023-01-10T01:58:38.342Z,9.03
2023-01-10T02:01:22.802Z,9.10
2023-01-10T02:04:30.374Z,9.21
2023-01-10T02:07:12.757Z,9.22
2023-01-10T02:10:06.417Z,9.01
2023-01-10T02:12:56.400Z,9.03
2023-01-10T02:15:38.661Z,9.25
2023-01-10T02:18:28.456Z,9.15
2023-01-10T02:21:41.383Z,9.24
2023-01-10T02:24:44.715Z,9.31
2023-01-10T02:28:22.373Z,9.26
2023-01-10T02:31:22.855Z,9.20
2023-01-10T02:34:25.235Z,9.29
2023-01-10T02:37:32.253Z,9.32
2023-01-10T02:40:52.528Z,9.26
2023-01-10T02:43:57.459Z,9.15
2023-01-10T02:46:41.763Z,9.44
2023-01-10T02:49:30.283Z,9.62
2023-01-10T02:52:19.437Z,9.40
2023-01-10T02:55:14.390Z,9.34
2023-01-10T02:58:20.875Z,9.24
2023-01-10T03:01:47.475Z,9.30
2023-01-10T03:05:06.267Z,9.29
2023-01-10T03:08:00.657Z,9.73
2023-01-10T03:11:10.318Z,9.58
2023-01-10T03:14:12.404Z,9.48
2023-01-10T03:17:04.941Z,9.46
2023-01-10T03:20:00.285Z,9.50
2023-01-10T03:22:44.282Z,9.48
2023-01-10T03:25:41.441Z,9.48
2023-01-10T03:28:53.638Z,9.43
2023-01-10T03:31:53.404Z,9.61
2023-01-10T03:34:42.720Z,9.65
2023-01-10T03:37:42.300Z,9.55
2023-01-10T03:40:42.642Z,9.46
2023-01-10T03:44:23.300Z,9.47
2023-01-10T03:47:22.353Z,9.49
2023-01-10T03:50:38.442Z,9.51
2023-01-10T03:53:34.273Z,9.56
2023-01-10T03:56:23.295Z,9.61
2023-01-10T03:59:13.236Z,9.58
2023-01-10T04:01:56.169Z,9.59
2023-01-10T04:04:45.408Z,9.82
2023-01-10T04:07:35.236Z,9.98
2023-01-10T04:10:18.444Z,10.06
2023-01-10T04:13:10.693Z,9.97
2023-01-10T04:15:52.298Z,9.96
2023-01-10T04:18:34.502Z,10.20
2023-01-10T04:21:23.298Z,10.10
2023-01-10T04:24:05.773Z,9.80
2023-01-10T04:26:54.343Z,9.85
2023-01-10T04:29:36.604Z,9.77
2023-01-10T04:32:25.305Z,9.88
2023-01-10T04:35:08.058Z,10.14
2023-01-10T04:37:58.327Z,10.19
2023-01-10T04:40:53.441Z,10.15
2023-01-10T04:43:35.540Z,10.40
2023-01-10T04:46:24.434Z,10.20
2023-01-10T04:49:07.177Z,10.24
2023-01-10T04:51:56.329Z,10.61
2023-01-10T04:54:52.347Z,10.50
2023-01-10T04:57:34.722Z,10.54
2023-01-10T05:00:24.281Z,10.59
2023-01-10T05:03:13.280Z,10.73
2023-01-10T05:05:55.628Z,10.98
2023-01-10T05:08:44.335Z,10.89
2023-01-10T05:11:26.656Z,10.81
2023-01-10T05:14:15.313Z,10.69
2023-01-10T05:16:57.639Z,10.77
2023-01-10T05:19:46.332Z,10.73
2023-01-10T05:22:28.700Z,10.97
2023-01-10T05:25:18.420Z,10.99
2023-01-10T05:28:02.215Z,10.88
2023-01-10T05:30:51.378Z,10.67
2023-01-10T05:33:40.282Z,10.75
2023-01-10T05:36:28.653Z,10.87
2023-01-10T05:39:12.703Z,10.98
2023-01-10T05:42:01.836Z,10.88
2023-01-10T05:44:43.423Z,11.06
2023-01-10T05:47:31.758Z,11.14
2023-01-10T05:50:14.292Z,11.23
2023-01-10T05:53:03.326Z,11.18
2023-01-10T05:55:52.767Z,11.31
2023-01-10T05:58:36.421Z,11.44
2023-01-10T06:01:25.289Z,11.57
2023-01-10T06:04:14.371Z,11.75
2023-01-10T06:07:05.835Z,11.53
2023-01-10T06:09:47.882Z,11.81
2023-01-10T06:12:36.409Z,11.81
2023-01-10T06:15:26.351Z,12.07
2023-01-10T06:18:15.681Z,12.18
2023-01-10T06:20:58.417Z,12.26
2023-01-10T06:27:25.235Z,12.26
2023-01-10T06:30:08.292Z,12.50
2023-01-10T06:32:57.370Z,12.22
2023-01-10T06:35:48.006Z,12.40
2023-01-10T06:38:30.366Z,12.61
2023-01-10T06:41:18.696Z,12.53
2023-01-10T06:44:00.390Z,12.70
2023-01-10T06:46:49.424Z,12.77
2023-01-10T06:49:31.807Z,12.74
2023-01-10T06:52:20.363Z,12.83
2023-01-10T06:55:02.600Z,12.88
2023-01-10T06:57:51.372Z,13.26
2023-01-10T07:00:35.784Z,13.50
2023-01-10T07:03:24.276Z,13.43
2023-01-10T07:06:12.420Z,13.40
2023-01-10T07:09:04.237Z,13.57
2023-01-10T07:11:46.594Z,13.72
2023-01-10T07:14:35.377Z,13.89
2023-01-10T07:17:17.618Z,14.04
2023-01-10T07:20:06.372Z,14.30
2023-01-10T07:22:48.631Z,14.38
2023-01-10T07:25:38.308Z,14.23
2023-01-10T07:28:27.397Z,14.59
2023-01-10T07:31:16.376Z,14.66
2023-01-10T07:34:08.366Z,14.97
2023-01-10T07:36:57.264Z,14.96
2023-01-10T07:39:39.677Z,14.69
2023-01-10T07:42:28.320Z,14.87
2023-01-10T07:45:10.588Z,15.20
2023-01-10T07:47:59.367Z,15.40
2023-01-10T07:50:43.722Z,15.54
2023-01-10T07:53:33.256Z,15.67
2023-01-10T07:56:15.574Z,15.77
2023-01-10T07:59:04.395Z,15.89
2023-01-10T08:01:53.401Z,16.01
2023-01-10T08:04:35.614Z,15.89
2023-01-10T08:07:24.262Z,16.15
2023-01-10T08:10:07.755Z,16.40
2023-01-10T08:12:57.734Z,16.09
2023-01-10T08:15:39.670Z,15.77
2023-01-10T08:18:28.344Z,16.27
2023-01-10T08:21:18.375Z,16.28
2023-01-10T08:24:01.662Z,16.47
2023-01-10T08:26:50.274Z,16.50
2023-01-10T08:29:32.607Z,16.75
2023-01-10T08:32:21.246Z,16.92
2023-01-10T08:35:03.621Z,16.73
2023-01-10T08:37:52.322Z,16.51
2023-01-10T08:40:36.111Z,17.01
2023-01-10T08:43:25.305Z,17.14
2023-01-10T08:46:14.250Z,16.91
2023-01-10T08:49:03.424Z,16.95
2023-01-10T08:51:46.606Z,16.83
2023-01-10T08:54:35.356Z,16.95
2023-01-10T08:57:17.553Z,17.08
2023-01-10T09:00:06.328Z,16.92
2023-01-10T09:02:49.749Z,16.93
2023-01-10T09:05:38.441Z,16.98
2023-01-10T09:08:20.631Z,16.92
2023-01-10T09:11:10.382Z,16.91
2023-01-10T09:13:52.737Z,16.96
2023-01-10T09:16:41.238Z,16.81
2023-01-10T09:19:30.362Z,17.06
2023-01-10T09:22:18.595Z,16.81
2023-01-10T09:25:01.266Z,16.88
2023-01-10T09:27:50.610Z,16.86
2023-01-10T09:30:33.255Z,16.92
2023-01-10T09:33:22.605Z,17.01
2023-01-10T09:36:08.543Z,17.10
2023-01-10T09:38:57.621Z,17.01
2023-01-10T09:42:03.290Z,17.14
2023-01-10T09:44:48.055Z,16.94
2023-01-10T09:48:02.272Z,16.80
2023-01-10T09:51:18.656Z,17.17
2023-01-10T09:54:12.482Z,17.12
2023-01-10T09:57:01.657Z,16.81
2023-01-10T09:59:50.334Z,17.06
2023-01-10T10:02:49.608Z,17.24
2023-01-10T10:05:36.253Z,17.15
2023-01-10T10:08:21.425Z,17.01
2023-01-10T10:11:15.310Z,17.03
2023-01-10T10:14:43.197Z,16.81
2023-01-10T10:17:54.260Z,16.82
2023-01-10T10:21:05.315Z,16.87
2023-01-10T10:24:05.620Z,16.64
2023-01-10T10:27:16.242Z,16.64
2023-01-10T10:30:17.694Z,16.78
2023-01-10T10:33:18.276Z,16.74
2023-01-10T10:36:12.502Z,16.65
2023-01-10T10:39:03.431Z,16.57
2023-01-10T10:42:09.123Z,16.54
2023-01-10T10:45:03.285Z,16.47
2023-01-10T10:47:58.173Z,16.44
2023-01-10T10:51:00.682Z,16.37
2023-01-10T10:53:43.331Z,16.49
2023-01-10T10:56:27.876Z,16.37
2023-01-10T10:59:16.251Z,16.15
2023-01-10T11:01:58.595Z,16.01
2023-01-10T11:04:47.221Z,15.92
2023-01-10T11:07:35.642Z,15.81
2023-01-10T11:10:43.248Z,15.72
2023-01-10T11:13:34.481Z,15.62
2023-01-10T11:16:37.377Z,15.55
2023-01-10T11:19:31.748Z,15.45
2023-01-10T11:22:16.373Z,15.43
2023-01-10T11:25:09.567Z,15.35
2023-01-10T11:28:06.324Z,15.27
2023-01-10T11:30:48.661Z,15.17
2023-01-10T11:33:43.356Z,15.17
2023-01-10T11:36:26.264Z,15.10
2023-01-10T11:39:15.240Z,15.09
2023-01-10T11:42:06.412Z,15.03
2023-01-10T11:44:55.542Z,14.96
2023-01-10T11:47:45.288Z,14.97
2023-01-10T11:50:38.895Z,14.87
2023-01-10T11:53:43.222Z,14.92
2023-01-10T11:56:37.660Z,14.72
2023-01-10T11:59:26.761Z,14.58
2023-01-10T12:02:23.468Z,14.33
2023-01-10T12:05:10.150Z,14.25
2023-01-10T12:08:14.288Z,14.15
2023-01-10T12:11:26.111Z,14.02
2023-01-10T12:14:28.184Z,13.97
2023-01-10T12:17:11.673Z,13.71
2023-01-10T12:20:04.277Z,13.77
2023-01-10T12:22:59.761Z,13.88
2023-01-10T12:26:11.127Z,13.47
2023-01-10T12:28:58.874Z,13.60
2023-01-10T12:31:49.264Z,13.52
2023-01-10T12:34:50.218Z,13.46
2023-01-10T12:37:51.416Z,13.32
2023-01-10T12:40:58.751Z,13.32
2023-01-10T12:44:09.309Z,13.30
2023-01-10T12:47:09.917Z,13.28
2023-01-10T12:50:21.402Z,13.25
2023-01-10T12:53:27.622Z,13.27
2023-01-10T12:56:15.226Z,13.26
2023-01-10T12:59:11.587Z,13.44
2023-01-10T13:02:02.379Z,13.49
2023-01-10T13:04:56.591Z,13.09
2023-01-10T13:07:43.217Z,13.10
2023-01-10T13:10:34.649Z,13.14
2023-01-10T13:13:45.743Z,13.20
2023-01-10T13:16:43.178Z,13.22
2023-01-10T13:19:32.189Z,13.06
2023-01-10T13:22:28.657Z,13.12
2023-01-10T13:25:11.277Z,12.92
2023-01-10T13:28:29.244Z,12.88
2023-01-10T13:31:27.780Z,12.85
2023-01-10T13:34:20.313Z,12.75
2023-01-10T13:37:20.663Z,12.58
2023-01-10T13:40:08.301Z,12.59
2023-01-10T13:43:34.789Z,12.80
2023-01-10T13:46:33.362Z,12.61
2023-01-10T13:49:32.088Z,12.58
2023-01-10T13:52:40.277Z,12.68
2023-01-10T13:55:40.737Z,12.82
2023-01-10T13:58:49.312Z,12.74
2023-01-10T14:02:03.951Z,12.68
2023-01-10T14:05:04.308Z,12.44
2023-01-10T14:07:51.725Z,12.38
2023-01-10T14:10:48.512Z,12.27
2023-01-10T14:13:38.202Z,12.41
2023-01-10T14:16:50.141Z,12.60
2023-01-10T14:19:45.295Z,12.36
2023-01-10T14:22:50.282Z,12.31
2023-01-10T14:25:36.065Z,12.23
2023-01-10T14:28:49.357Z,12.19
2023-01-10T14:31:39.686Z,11.89
2023-01-10T14:34:30.362Z,11.97
2023-01-10T14:37:38.713Z,11.97
2023-01-10T14:40:30.364Z,11.97
2023-01-10T14:43:19.303Z,12.14
2023-01-10T14:46:20.491Z,11.98
2023-01-10T14:49:08.562Z,12.01
2023-01-10T14:51:50.217Z,11.92
2023-01-10T14:55:18.221Z,11.93
2023-01-10T14:58:12.206Z,11.96
2023-01-10T15:01:02.337Z,11.96
2023-01-10T15:03:59.027Z,12.00
2023-01-10T15:07:02.253Z,11.91
2023-01-10T15:09:44.713Z,11.92
2023-01-10T15:12:36.302Z,11.83
2023-01-10T15:15:25.550Z,11.98
2023-01-10T15:19:09.246Z,11.93
2023-01-10T15:22:00.140Z,11.86
2023-01-10T15:24:48.615Z,11.92
2023-01-10T15:27:45.274Z,11.88
2023-01-10T15:30:37.577Z,11.82
2023-01-10T15:33:23.281Z,11.69
2023-01-10T15:36:30.347Z,11.79
2023-01-10T15:39:35.500Z,11.95
2023-01-10T15:42:26.431Z,11.73
2023-01-10T15:45:46.218Z,11.65
2023-01-10T15:48:42.262Z,11.64
2023-01-10T15:51:34.550Z,11.65
2023-01-10T15:54:29.247Z,11.65
2023-01-10T15:57:33.994Z,11.65
2023-01-10T16:00:26.232Z,11.64
2023-01-10T16:03:08.629Z,11.46
2023-01-10T16:06:07.229Z,11.48
2023-01-10T16:12:20.264Z,11.52
2023-01-10T16:15:04.801Z,11.50
2023-01-10T16:17:54.171Z,11.51
2023-01-10T16:20:51.237Z,11.36
2023-01-10T16:24:10.786Z,11.74
2023-01-10T16:27:01.111Z,11.47
2023-01-10T16:29:56.303Z,11.43
2023-01-10T16:32:44.607Z,11.45
2023-01-10T16:35:28.149Z,11.69
2023-01-10T16:38:19.147Z,11.75
2023-01-10T16:41:33.320Z,12.06
2023-01-10T16:44:22.548Z,11.98
2023-01-10T16:47:07.137Z,12.17
2023-01-10T16:49:55.560Z,11.96
2023-01-10T16:52:38.372Z,12.13
2023-01-10T16:55:29.985Z,11.95
2023-01-10T16:58:13.331Z,11.95
2023-01-10T17:00:55.643Z,12.15
2023-01-10T17:03:51.329Z,12.00
2023-01-10T17:06:41.593Z,11.73
2023-01-10T17:09:41.344Z,12.09
2023-01-10T17:12:38.608Z,12.02
2023-01-10T17:15:22.261Z,12.05
2023-01-10T17:18:05.175Z,12.07
2023-01-10T17:20:54.403Z,12.12
2023-01-10T17:23:43.759Z,11.99
2023-01-10T17:26:27.121Z,12.13
2023-01-10T17:29:23.397Z,11.97
2023-01-10T17:32:05.638Z,11.81
2023-01-10T17:34:54.188Z,11.48
2023-01-10T17:37:43.771Z,11.46
2023-01-10T17:40:26.298Z,11.57
2023-01-10T17:43:14.722Z,11.56
2023-01-10T17:45:59.243Z,11.35
2023-01-10T17:48:48.167Z,11.20
2023-01-10T17:51:30.634Z,11.15
2023-01-10T17:54:19.368Z,11.23
2023-01-10T17:57:01.532Z,11.08
2023-01-10T17:59:50.307Z,10.68
2023-01-10T18:02:32.660Z,10.48
2023-01-10T18:05:21.316Z,10.61
2023-01-10T18:08:03.957Z,10.38
2023-01-10T18:10:53.305Z,10.26
2023-01-10T18:13:36.665Z,10.21
2023-01-10T18:16:27.209Z,10.35
2023-01-10T18:19:16.269Z,10.34
2023-01-10T18:22:05.215Z,10.09
2023-01-10T18:24:54.110Z,10.07
2023-01-10T18:27:50.218Z,9.85
2023-01-10T18:30:39.150Z,9.88
2023-01-10T18:33:28.302Z,9.87
2023-01-10T18:36:22.561Z,9.72
2023-01-10T18:39:05.271Z,9.81
2023-01-10T18:41:54.766Z,9.75
2023-01-10T18:44:37.288Z,9.70
2023-01-10T18:47:25.671Z,9.93
2023-01-10T18:50:08.266Z,9.95
2023-01-10T18:52:57.371Z,9.86
2023-01-10T18:55:39.559Z,9.80
2023-01-10T18:58:30.311Z,9.89
2023-01-10T19:01:17.877Z,10.01
2023-01-10T19:04:07.191Z,9.96
2023-01-10T19:06:56.913Z,9.79
2023-01-10T19:09:45.511Z,9.57
2023-01-10T19:12:27.220Z,9.68
2023-01-10T19:15:10.877Z,9.92
2023-01-10T19:18:00.264Z,9.73
2023-01-10T19:20:49.230Z,9.78
2023-01-10T19:23:38.265Z,9.69
2023-01-10T19:26:27.595Z,9.60
2023-01-10T19:29:16.183Z,9.70
2023-01-10T19:32:05.167Z,9.65
2023-01-10T19:34:54.288Z,9.66
2023-01-10T19:37:43.130Z,9.70
2023-01-10T19:40:39.250Z,10.03
2023-01-10T19:43:30.245Z,10.16
2023-01-10T19:46:17.666Z,9.86
2023-01-10T19:49:09.267Z,9.90
2023-01-10T19:51:57.064Z,9.75
2023-01-10T19:54:47.267Z,9.83
2023-01-10T19:57:29.604Z,9.62
2023-01-10T20:00:19.204Z,9.67
2023-01-10T20:03:02.074Z,9.50
2023-01-10T20:05:52.183Z,9.51
2023-01-10T20:08:41.208Z,9.69
2023-01-10T20:11:32.137Z,9.59
2023-01-10T20:14:18.584Z,9.57
2023-01-10T20:17:07.215Z,9.78
2023-01-10T20:19:56.226Z,9.89
2023-01-10T20:22:38.373Z,9.78
2023-01-10T20:25:27.160Z,9.66
2023-01-10T20:28:16.258Z,9.58
2023-01-10T20:30:58.573Z,9.71
2023-01-10T20:33:47.169Z,9.88
2023-01-10T20:36:38.136Z,10.10
2023-01-10T20:39:29.211Z,10.04
2023-01-10T20:42:11.560Z,9.79
2023-01-10T20:45:00.275Z,9.94
2023-01-10T20:47:42.531Z,9.81
2023-01-10T20:50:31.101Z,9.77
2023-01-10T20:53:13.647Z,10.03
2023-01-10T20:56:02.282Z,9.98
2023-01-10T20:58:44.553Z,10.02
2023-01-10T21:01:35.881Z,10.11
2023-01-10T21:04:18.492Z,10.28
2023-01-10T21:07:07.373Z,10.33
2023-01-10T21:09:49.688Z,10.18
2023-01-10T21:12:39.508Z,9.86
2023-01-10T21:15:21.536Z,9.83
2023-01-10T21:18:10.261Z,9.85
2023-01-10T21:21:02.224Z,9.75
2023-01-10T21:23:51.163Z,9.97
2023-01-10T21:26:40.171Z,10.00
2023-01-10T21:29:28.532Z,10.02
2023-01-10T21:32:10.149Z,9.91
2023-01-10T21:34:58.505Z,9.97
2023-01-10T21:37:40.132Z,10.12
2023-01-10T21:40:22.360Z,9.95
2023-01-10T21:43:11.216Z,9.99
2023-01-10T21:46:00.294Z,10.18
2023-01-10T21:48:49.120Z,9.83
2023-01-10T21:51:38.114Z,9.77
2023-01-10T21:54:20.550Z,9.83
2023-01-10T21:57:09.113Z,10.00
2023-01-10T21:59:51.543Z,10.13
2023-01-10T22:02:43.063Z,9.99
2023-01-10T22:05:32.248Z,9.85
2023-01-10T22:08:21.108Z,9.95
2023-01-10T22:11:11.070Z,9.77
2023-01-10T22:14:00.541Z,9.80
2023-01-10T22:16:43.103Z,9.74
2023-01-10T22:19:32.272Z,9.84
2023-01-10T22:22:15.684Z,10.04
2023-01-10T22:25:04.233Z,9.82
2023-01-10T22:28:01.078Z,9.82
2023-01-10T22:30:50.250Z,9.83
2023-01-10T22:33:35.419Z,9.78
2023-01-10T22:36:26.301Z,10.10
2023-01-10T22:39:08.489Z,10.01
2023-01-10T22:41:57.202Z,9.82
2023-01-10T22:44:39.573Z,9.81
2023-01-10T22:47:28.240Z,9.84
2023-01-10T22:50:10.503Z,9.81
2023-01-10T22:52:59.081Z,10.27
2023-01-10T22:55:42.486Z,10.10
2023-01-10T22:58:31.233Z,9.91
2023-01-10T23:01:16.446Z,10.11
2023-01-10T23:04:05.243Z,10.06
2023-01-10T23:06:54.251Z,9.91
2023-01-10T23:09:36.408Z,9.91
2023-01-10T23:12:25.186Z,9.85
2023-01-10T23:15:07.889Z,9.94
2023-01-10T23:17:57.184Z,9.94
2023-01-10T23:20:45.472Z,9.96
2023-01-10T23:23:28.201Z,10.03
2023-01-10T23:26:12.830Z,10.03
2023-01-10T23:29:04.204Z,10.01
2023-01-10T23:31:50.768Z,10.29
2023-01-10T23:34:39.067Z,10.25
2023-01-10T23:37:34.201Z,10.07
2023-01-10T23:40:16.425Z,10.13
2023-01-10T23:43:05.223Z,10.27
2023-01-10T23:45:54.509Z,10.06
2023-01-10T23:48:37.243Z,10.09
2023-01-10T23:51:19.424Z,10.10
2023-01-10T23:54:08.094Z,10.31
2023-01-10T23:57:00.135Z,10.19
2023-01-10T23:59:42.491Z,10.13
